Time;durP1;ratioP1;P1;durP2;ratioP2;P2;SDS_P1;SDS_P2;PMS_P1;PMS_P2;Temp;Humidity;BMP_temperature;BMP_pressure;BME280_temperature;BME280_humidity;BME280_pressure;Samples;Min_cycle;Max_cycle;Signal;HPM_P1;HPM_P2
2022/06/14 00:00:54;;;;;;;9.85;4.80;;;10.40;99.90;;;;;;5018563;28;20405;-79
2022/06/14 00:03:31;;;;;;;12.55;4.80;;;10.40;99.90;;;;;;5048853;28;20079;-80
2022/06/14 00:06:10;;;;;;;11.20;4.63;;;10.40;99.90;;;;;;5043178;28;20072;-79
2022/06/14 00:08:37;;;;;;;12.13;4.22;;;10.30;99.90;;;;;;5056427;28;20043;-80
2022/06/14 00:11:13;;;;;;;9.63;4.80;;;10.30;99.90;;;;;;5027960;28;20874;-78
2022/06/14 00:13:40;;;;;;;12.75;4.35;;;10.30;99.90;;;;;;5061129;28;20044;-79
2022/06/14 00:16:08;;;;;;;11.27;4.72;;;10.30;99.90;;;;;;5057589;28;20047;-79
2022/06/14 00:18:37;;;;;;;9.75;3.97;;;10.20;99.90;;;;;;5061585;28;20131;-79
2022/06/14 00:21:04;;;;;;;10.40;4.38;;;10.10;99.90;;;;;;5031776;28;20075;-79
2022/06/14 00:23:30;;;;;;;10.82;4.25;;;10.10;99.90;;;;;;5043268;28;20058;-79
2022/06/14 00:25:58;;;;;;;12.20;3.88;;;10.10;99.90;;;;;;5053644;28;20108;-79
2022/06/14 00:28:26;;;;;;;12.93;4.75;;;10.10;99.90;;;;;;5059891;28;20082;-79
2022/06/14 00:30:56;;;;;;;12.98;4.45;;;10.10;99.90;;;;;;5062327;28;20148;-79
2022/06/14 00:33:22;;;;;;;11.15;3.80;;;10.00;99.90;;;;;;5059345;28;20198;-79
2022/06/14 00:35:49;;;;;;;11.40;4.72;;;9.90;99.90;;;;;;5009911;28;20097;-79
2022/06/14 00:38:16;;;;;;;12.82;4.88;;;9.90;99.90;;;;;;5027707;28;20067;-79
2022/06/14 00:40:58;;;;;;;7.40;4.50;;;9.90;99.90;;;;;;5052198;28;20440;-79
2022/06/14 00:43:25;;;;;;;9.90;4.43;;;9.80;99.90;;;;;;5066528;28;20044;-80
2022/06/14 00:45:52;;;;;;;13.50;4.43;;;9.70;99.90;;;;;;5071479;28;20054;-79
2022/06/14 00:48:30;;;;;;;16.55;4.97;;;9.70;99.90;;;;;;5039364;28;20071;-80
2022/06/14 00:51:08;;;;;;;10.73;4.50;;;9.70;99.90;;;;;;5058252;28;20040;-79
2022/06/14 00:54:10;;;;;;;12.02;4.90;;;9.70;99.90;;;;;;5046038;28;20700;-80
2022/06/14 00:56:53;;;;;;;10.60;4.88;;;9.70;99.90;;;;;;5039144;28;20036;-79
2022/06/14 00:59:33;;;;;;;10.38;4.47;;;9.70;99.90;;;;;;5085041;28;20053;-80
2022/06/14 01:02:20;;;;;;;7.80;4.50;;;9.70;99.90;;;;;;5068196;28;20133;-78
2022/06/14 01:04:50;;;;;;;15.85;5.72;;;9.70;99.90;;;;;;5044799;28;20059;-79
2022/06/14 01:07:26;;;;;;;10.98;4.78;;;9.70;99.90;;;;;;5025389;28;20072;-82
2022/06/14 01:10:03;;;;;;;11.93;5.18;;;9.70;99.90;;;;;;5037120;28;20051;-79
2022/06/14 01:12:35;;;;;;;15.25;5.63;;;9.70;99.90;;;;;;5022013;28;20123;-79
2022/06/14 01:15:04;;;;;;;;;;;9.60;99.90;;;;;;5040284;28;20051;-79
2022/06/14 01:17:43;;;;;;;9.85;4.28;;;9.60;99.90;;;;;;5049606;28;19935;-79
2022/06/14 01:20:14;;;;;;;11.93;5.13;;;9.60;99.90;;;;;;5036689;28;20048;-78
2022/06/14 01:22:44;;;;;;;9.52;4.20;;;9.60;99.90;;;;;;5031964;28;20121;-80
2022/06/14 01:25:12;;;;;;;9.20;4.85;;;9.60;99.90;;;;;;5030688;28;20156;-79
2022/06/14 01:27:41;;;;;;;10.65;4.57;;;9.60;99.90;;;;;;5022652;28;20680;-79
2022/06/14 01:30:11;;;;;;;9.68;4.35;;;9.50;99.90;;;;;;5039216;28;20897;-79
2022/06/14 01:32:57;;;;;;;11.10;4.93;;;9.50;99.90;;;;;;5059119;28;20043;-78
2022/06/14 01:35:32;;;;;;;10.18;4.32;;;9.50;99.90;;;;;;5025051;28;20874;-79
2022/06/14 01:38:01;;;;;;;10.20;5.13;;;9.50;99.90;;;;;;5024180;28;20051;-79
2022/06/14 01:41:06;;;;;;;11.52;5.13;;;9.40;99.90;;;;;;5023553;28;20625;-79
2022/06/14 01:43:59;;;;;;;11.00;5.35;;;9.40;99.90;;;;;;5057490;28;20246;-79
2022/06/14 01:46:33;;;;;;;11.88;4.90;;;9.30;99.90;;;;;;5056632;28;20052;-79
2022/06/14 01:52:59;;;;;;;9.85;4.70;;;9.20;99.90;;;;;;5055247;28;20040;-80
2022/06/14 01:55:39;;;;;;;;;;;9.10;99.90;;;;;;5041507;28;20661;-79
2022/06/14 01:58:08;;;;;;;10.10;5.38;;;9.10;99.90;;;;;;5065635;28;19924;-79
2022/06/14 02:00:44;;;;;;;10.35;5.25;;;9.00;99.90;;;;;;5045967;28;20068;-80
2022/06/14 02:06:23;;;;;;;11.13;5.03;;;9.00;99.90;;;;;;5083107;28;20044;-80
2022/06/14 02:09:01;;;;;;;9.70;4.95;;;9.00;99.90;;;;;;5038878;28;20397;-80
2022/06/14 02:11:36;;;;;;;9.98;5.15;;;8.90;99.90;;;;;;5030398;28;20597;-80
2022/06/14 02:14:42;;;;;;;14.82;5.63;;;8.90;99.90;;;;;;5058497;28;20047;-80
2022/06/14 02:17:12;;;;;;;10.00;5.63;;;8.90;99.90;;;;;;5019447;28;20045;-80
2022/06/14 02:19:48;;;;;;;11.48;5.55;;;8.90;99.90;;;;;;5032404;28;20037;-80
2022/06/14 02:22:27;;;;;;;13.90;6.03;;;9.00;99.90;;;;;;5045113;28;20121;-80
2022/06/14 02:25:16;;;;;;;11.13;6.38;;;9.00;99.90;;;;;;5047261;28;20048;-80
2022/06/14 02:27:55;;;;;;;7.65;5.68;;;9.10;99.90;;;;;;5062394;28;20561;-79
2022/06/14 02:30:58;;;;;;;13.63;6.22;;;9.10;99.90;;;;;;5030344;28;20519;-80
2022/06/14 02:33:33;;;;;;;13.13;6.28;;;9.10;99.90;;;;;;5022507;28;20048;-80
2022/06/14 02:36:05;;;;;;;10.43;5.70;;;9.00;99.90;;;;;;5044865;28;20050;-80
2022/06/14 02:38:46;;;;;;;11.27;5.90;;;9.00;99.90;;;;;;5047410;28;20083;-79
2022/06/14 02:41:35;;;;;;;9.70;6.07;;;9.00;99.90;;;;;;5059434;28;20495;-80
2022/06/14 02:44:18;;;;;;;17.33;6.78;;;9.00;99.90;;;;;;5030584;28;20051;-80
2022/06/14 02:46:52;;;;;;;11.50;5.20;;;9.00;99.90;;;;;;5059993;28;20079;-80
2022/06/14 02:49:42;;;;;;;12.68;5.50;;;9.00;99.90;;;;;;5066183;28;20568;-80
2022/06/14 02:52:12;;;;;;;13.05;6.18;;;9.00;99.90;;;;;;5062038;28;20085;-80
2022/06/14 02:55:03;;;;;;;10.57;5.50;;;9.00;99.90;;;;;;5085876;28;20040;-80
2022/06/14 02:57:54;;;;;;;10.13;5.25;;;9.00;99.90;;;;;;5047595;28;20059;-80
2022/06/14 03:00:25;;;;;;;14.00;6.15;;;9.00;99.90;;;;;;5076118;28;20056;-81
2022/06/14 03:02:59;;;;;;;9.23;5.28;;;9.10;99.90;;;;;;5048413;28;20064;-80
2022/06/14 03:05:29;;;;;;;13.98;6.30;;;9.00;99.90;;;;;;5079784;28;20491;-80
2022/06/14 03:08:04;;;;;;;12.68;6.68;;;9.10;99.90;;;;;;5046667;28;20047;-80
2022/06/14 03:10:44;;;;;;;15.35;6.78;;;9.10;99.90;;;;;;5046941;28;20560;-80
2022/06/14 03:13:26;;;;;;;15.35;6.70;;;9.10;99.90;;;;;;5049980;28;20127;-81
2022/06/14 03:16:28;;;;;;;10.13;5.38;;;9.10;99.90;;;;;;5047832;28;20051;-80
2022/06/14 03:19:04;;;;;;;;;;;9.10;99.90;;;;;;5063161;28;20048;-80
2022/06/14 03:21:43;;;;;;;7.60;5.43;;;9.10;99.90;;;;;;5045363;28;20022;-80
2022/06/14 03:24:29;;;;;;;9.65;6.05;;;9.10;99.90;;;;;;5041069;28;20083;-80
2022/06/14 03:27:20;;;;;;;11.15;5.47;;;9.00;99.90;;;;;;5047316;28;20105;-80
2022/06/14 03:29:59;;;;;;;10.25;6.70;;;9.00;99.90;;;;;;5078307;28;20508;-80
2022/06/14 03:32:32;;;;;;;12.25;6.65;;;9.10;99.90;;;;;;5063305;28;20637;-80
2022/06/14 03:35:17;;;;;;;12.02;6.00;;;8.90;99.90;;;;;;5063905;28;20514;-81
2022/06/14 03:37:43;;;;;;;11.93;6.35;;;9.00;99.90;;;;;;5053806;28;20094;-81
2022/06/14 03:40:13;;;;;;;12.65;6.47;;;9.10;99.90;;;;;;5029821;28;20500;-80
2022/06/14 03:42:40;;;;;;;8.70;5.50;;;9.10;99.90;;;;;;5058883;28;20105;-80
2022/06/14 03:45:09;;;;;;;14.95;6.20;;;9.10;99.90;;;;;;5042909;28;20133;-81
2022/06/14 03:47:38;;;;;;;11.00;7.10;;;9.10;99.90;;;;;;5061248;28;20048;-81
2022/06/14 03:50:09;;;;;;;11.73;6.80;;;9.10;99.90;;;;;;5030475;28;20052;-80
2022/06/14 03:52:53;;;;;;;16.92;7.50;;;9.10;99.90;;;;;;5025476;28;20036;-81
2022/06/14 03:55:30;;;;;;;9.60;6.68;;;9.20;99.90;;;;;;5045958;28;20564;-80
2022/06/14 03:58:11;;;;;;;12.63;7.53;;;9.20;99.90;;;;;;5046816;28;20044;-81
2022/06/14 04:00:50;;;;;;;16.73;6.93;;;9.20;99.90;;;;;;5055530;28;20108;-81
2022/06/14 04:04:00;;;;;;;13.57;7.10;;;9.30;99.90;;;;;;5056312;28;20051;-80
2022/06/14 04:06:35;;;;;;;11.90;6.40;;;9.30;99.90;;;;;;5063677;28;20097;-81
2022/06/14 04:09:42;;;;;;;12.20;7.00;;;9.40;99.90;;;;;;5044411;28;20072;-80
2022/06/14 04:12:35;;;;;;;14.13;6.72;;;9.40;99.90;;;;;;5050259;28;20040;-81
2022/06/14 04:15:20;;;;;;;10.40;5.82;;;9.50;99.90;;;;;;5062474;28;20059;-80
2022/06/14 04:17:55;;;;;;;13.50;7.50;;;9.60;99.90;;;;;;5043661;28;20076;-81
2022/06/14 04:20:25;;;;;;;15.52;7.72;;;9.60;99.90;;;;;;5043421;28;20048;-80
2022/06/14 04:23:18;;;;;;;11.43;6.80;;;9.50;99.90;;;;;;5048975;28;20047;-80
2022/06/14 04:25:54;;;;;;;12.45;7.13;;;9.60;99.90;;;;;;5051573;28;20056;-80
2022/06/14 04:28:31;;;;;;;10.75;7.25;;;9.60;99.90;;;;;;5040002;28;20091;-81
2022/06/14 04:31:29;;;;;;;11.55;6.90;;;9.60;99.90;;;;;;5070213;28;20172;-80
2022/06/14 04:34:09;;;;;;;10.02;6.85;;;9.70;99.90;;;;;;5053812;28;20123;-80
2022/06/14 04:36:40;;;;;;;13.73;7.80;;;9.70;99.90;;;;;;5057976;28;20126;-80
2022/06/14 04:39:15;;;;;;;12.02;6.80;;;9.70;99.90;;;;;;5061169;28;20161;-80
2022/06/14 04:41:48;;;;;;;13.63;7.25;;;9.70;99.90;;;;;;5059178;28;20059;-80
2022/06/14 04:44:51;;;;;;;11.35;7.38;;;9.70;99.90;;;;;;5043132;28;20048;-80
2022/06/14 04:47:37;;;;;;;11.57;7.35;;;9.70;99.90;;;;;;5031441;28;20047;-80
2022/06/14 04:50:20;;;;;;;10.73;7.03;;;9.80;99.90;;;;;;5053634;28;20040;-81
2022/06/14 04:52:51;;;;;;;12.90;6.85;;;9.80;99.90;;;;;;5043839;28;20097;-80
2022/06/14 04:55:23;;;;;;;11.23;6.82;;;9.90;99.90;;;;;;5058735;28;20044;-80
2022/06/14 04:58:03;;;;;;;10.93;7.05;;;9.90;99.90;;;;;;5046197;28;20035;-80
2022/06/14 05:00:37;;;;;;;13.52;6.93;;;10.00;99.90;;;;;;5060217;28;20094;-80
2022/06/14 05:03:25;;;;;;;12.43;6.47;;;10.10;99.90;;;;;;5044137;28;20374;-80
2022/06/14 05:06:05;;;;;;;12.45;7.35;;;10.20;99.90;;;;;;5039314;28;20067;-80
2022/06/14 05:08:38;;;;;;;11.32;6.10;;;10.40;99.90;;;;;;5042324;28;20511;-80
2022/06/14 05:11:11;;;;;;;11.55;7.15;;;10.70;99.90;;;;;;5015316;28;20135;-80
2022/06/14 05:13:43;;;;;;;9.30;6.38;;;11.00;99.90;;;;;;5059684;28;20044;-80
2022/06/14 05:16:33;;;;;;;11.48;5.80;;;11.40;99.90;;;;;;5057519;28;20066;-80
2022/06/14 05:19:17;;;;;;;11.07;5.55;;;11.80;99.90;;;;;;5064597;28;20721;-80
2022/06/14 05:22:19;;;;;;;14.43;6.70;;;12.00;99.90;;;;;;5077903;28;20074;-80
2022/06/14 05:24:45;;;;;;;15.07;6.07;;;12.30;99.90;;;;;;5060732;28;20084;-81
2022/06/14 05:27:33;;;;;;;11.27;5.32;;;12.40;99.90;;;;;;5046808;28;20044;-80
2022/06/14 05:30:14;;;;;;;12.85;5.45;;;12.70;99.90;;;;;;5043946;28;20068;-80
2022/06/14 05:33:08;;;;;;;12.38;5.75;;;12.80;99.90;;;;;;5062780;28;20040;-81
2022/06/14 05:35:39;;;;;;;10.55;5.15;;;12.90;99.90;;;;;;5062047;28;20048;-80
2022/06/14 05:38:45;;;;;;;10.48;5.60;;;13.10;99.90;;;;;;5066950;28;20389;-78
2022/06/14 05:41:21;;;;;;;12.88;5.13;;;13.20;99.90;;;;;;4994961;28;20749;-79
2022/06/14 05:44:06;;;;;;;11.10;4.60;;;13.60;99.90;;;;;;5059944;28;20055;-78
2022/06/14 05:46:51;;;;;;;11.05;4.82;;;13.70;99.90;;;;;;5044771;28;20045;-83
2022/06/14 05:49:21;;;;;;;12.27;4.53;;;14.00;99.90;;;;;;5061891;28;20048;-80
2022/06/14 05:51:53;;;;;;;7.35;4.43;;;14.10;99.90;;;;;;5023265;28;20490;-79
2022/06/14 05:54:26;;;;;;;12.30;4.38;;;14.30;99.90;;;;;;5045891;28;20080;-80
2022/06/14 05:57:16;;;;;;;13.35;4.35;;;14.20;99.90;;;;;;5040214;28;20163;-80
2022/06/14 05:59:54;;;;;;;10.10;4.05;;;14.60;99.90;;;;;;5045737;28;20047;-80
2022/06/14 06:02:31;;;;;;;12.20;4.53;;;14.80;99.90;;;;;;5045538;28;20051;-80
2022/06/14 06:05:09;;;;;;;11.65;3.97;;;15.10;99.90;;;;;;5046455;28;20043;-79
2022/06/14 06:07:42;;;;;;;10.77;4.25;;;15.20;99.90;;;;;;5058195;28;20172;-80
2022/06/14 06:10:19;;;;;;;8.40;4.07;;;15.40;99.90;;;;;;5067094;28;20181;-78
2022/06/14 06:13:09;;;;;;;10.07;4.20;;;15.50;99.90;;;;;;5063537;28;20106;-80
2022/06/14 06:15:52;;;;;;;11.00;3.72;;;15.60;99.90;;;;;;5029515;28;20047;-79
2022/06/14 06:18:51;;;;;;;11.75;3.75;;;15.70;99.90;;;;;;5068093;28;20068;-79
2022/06/14 06:21:32;;;;;;;10.55;3.78;;;16.00;99.90;;;;;;5037826;28;20047;-80
2022/06/14 06:24:09;;;;;;;11.53;3.90;;;16.00;99.90;;;;;;5042899;28;20036;-79
2022/06/14 06:26:39;;;;;;;11.15;3.17;;;16.10;99.90;;;;;;5042389;28;20298;-79
2022/06/14 06:29:23;;;;;;;9.40;4.05;;;16.10;99.90;;;;;;5054830;28;20048;-80
2022/06/14 06:31:49;;;;;;;8.15;3.10;;;16.20;99.90;;;;;;5071629;28;20032;-80
2022/06/14 06:34:17;;;;;;;9.80;2.85;;;16.20;99.90;;;;;;5012829;28;20071;-80
2022/06/14 06:37:31;;;;;;;9.90;3.22;;;16.40;99.90;;;;;;5020253;28;20078;-79
2022/06/14 06:40:04;;;;;;;8.77;3.10;;;16.40;99.90;;;;;;5045404;28;20055;-80
2022/06/14 06:42:30;;;;;;;11.30;3.25;;;16.50;99.90;;;;;;5077346;28;20127;-82
2022/06/14 06:45:01;;;;;;;8.15;3.00;;;16.60;99.90;;;;;;5042013;28;20044;-80
2022/06/14 06:47:33;;;;;;;7.75;3.00;;;16.60;99.90;;;;;;5061282;28;20882;-80
2022/06/14 06:50:11;;;;;;;11.05;3.25;;;16.60;99.90;;;;;;5075239;28;20147;-80
2022/06/14 06:52:57;;;;;;;8.30;3.17;;;16.80;99.90;;;;;;5074909;28;20048;-79
2022/06/14 06:55:44;;;;;;;11.80;5.95;;;16.80;99.90;;;;;;5084875;28;20633;-80
2022/06/14 06:58:25;;;;;;;17.88;11.40;;;16.90;99.90;;;;;;5056823;28;20041;-83
2022/06/14 07:00:56;;;;;;;11.27;3.72;;;17.20;99.90;;;;;;5044441;28;20053;-82
2022/06/14 07:03:45;;;;;;;6.28;2.47;;;17.00;99.90;;;;;;5050164;28;20163;-83
2022/06/14 07:06:35;;;;;;;12.77;3.42;;;17.30;99.90;;;;;;5028069;28;20052;-81
2022/06/14 07:09:26;;;;;;;7.80;2.47;;;17.40;99.90;;;;;;5040609;28;20503;-83
2022/06/14 07:12:24;;;;;;;12.27;6.05;;;17.80;99.90;;;;;;5046303;28;20051;-84
2022/06/14 07:15:45;;;;;;;8.75;2.72;;;18.10;99.90;;;;;;5063662;28;20055;-83
2022/06/14 07:18:50;;;;;;;9.50;3.22;;;18.60;99.90;;;;;;5048162;28;20051;-82
2022/06/14 07:21:22;;;;;;;7.50;3.92;;;18.80;99.90;;;;;;5060767;28;20661;-85
2022/06/14 07:23:54;;;;;;;6.03;2.53;;;18.90;99.90;;;;;;5041038;28;20052;-81
2022/06/14 07:26:27;;;;;;;6.25;2.03;;;18.80;99.90;;;;;;5045319;28;20125;-86
2022/06/14 07:28:59;;;;;;;9.32;3.72;;;18.90;99.90;;;;;;5046931;28;20043;-85
2022/06/14 07:31:49;;;;;;;7.13;2.08;;;18.40;99.90;;;;;;5081771;28;20954;-87
2022/06/14 07:34:16;;;;;;;7.07;2.15;;;18.30;99.90;;;;;;5080094;28;20070;-88
2022/06/14 07:36:55;;;;;;;7.03;1.85;;;18.60;99.90;;;;;;5064564;28;20040;-87
2022/06/14 07:39:39;;;;;;;6.00;1.92;;;18.50;99.90;;;;;;5030519;28;20048;-88
2022/06/14 07:42:19;;;;;;;7.85;2.13;;;19.20;99.90;;;;;;5080255;28;20105;-83
2022/06/14 07:45:40;;;;;;;15.82;12.45;;;19.30;99.90;;;;;;5045102;28;20134;-87
2022/06/14 07:48:18;;;;;;;14.70;7.05;;;18.90;99.90;;;;;;5003909;28;20140;-86
2022/06/14 07:51:07;;;;;;;8.25;2.33;;;18.70;99.90;;;;;;5050069;28;20129;-84
2022/06/14 07:54:01;;;;;;;8.68;2.00;;;19.10;99.90;;;;;;5033500;28;20048;-84
2022/06/14 07:57:17;;;;;;;7.07;2.17;;;19.70;99.90;;;;;;5041291;28;20036;-83
2022/06/14 08:03:02;;;;;;;7.00;2.63;;;19.70;99.90;;;;;;5075777;28;20313;-82
2022/06/14 08:05:36;;;;;;;9.98;2.83;;;19.50;99.90;;;;;;5053812;28;20066;-82
2022/06/14 08:08:05;;;;;;;5.78;2.47;;;19.10;99.90;;;;;;5057594;28;20044;-88
2022/06/14 08:10:37;;;;;;;7.57;2.20;;;18.80;99.90;;;;;;5022843;28;20086;-85
2022/06/14 08:13:11;;;;;;;9.27;5.00;;;19.20;99.90;;;;;;5024738;28;20082;-81
2022/06/14 08:15:44;;;;;;;5.72;1.90;;;19.00;99.90;;;;;;5059240;28;20103;-87
2022/06/14 08:18:20;;;;;;;46.20;37.17;;;19.00;99.90;;;;;;5061457;28;20104;-85
2022/06/14 08:20:58;;;;;;;38.67;27.92;;;18.90;99.90;;;;;;5074837;28;20035;-87
2022/06/14 08:23:43;;;;;;;37.08;31.30;;;18.80;99.90;;;;;;5056282;28;20106;-85
2022/06/14 08:26:19;;;;;;;10.95;6.45;;;18.70;99.90;;;;;;5041675;28;20048;-87
2022/06/14 08:28:53;;;;;;;5.85;1.88;;;18.60;99.90;;;;;;5041873;28;20039;-84
2022/06/14 08:31:32;;;;;;;6.15;1.75;;;19.30;99.90;;;;;;5044386;28;20095;-85
2022/06/14 08:34:12;;;;;;;7.40;2.97;;;20.00;99.90;;;;;;5060108;28;20159;-85
2022/06/14 08:36:50;;;;;;;6.43;1.73;;;20.80;99.90;;;;;;5024749;28;20040;-82
2022/06/14 08:39:28;;;;;;;7.97;3.03;;;21.00;99.90;;;;;;5075319;28;20051;-83
2022/06/14 08:42:15;;;;;;;4.72;1.42;;;20.50;99.90;;;;;;5058659;28;20075;-85
2022/06/14 08:45:29;;;;;;;5.00;1.98;;;20.20;99.90;;;;;;5047493;28;20315;-86
2022/06/14 08:52:37;;;;;;;12.02;7.75;;;19.60;99.90;;;;;;5004961;28;20140;-90
2022/06/14 08:55:27;;;;;;;9.70;3.53;;;19.10;99.90;;;;;;5020434;28;20053;-84
2022/06/14 08:58:18;;;;;;;7.38;3.72;;;19.20;99.90;;;;;;4968369;28;20525;-83
2022/06/14 09:01:03;;;;;;;10.50;4.82;;;19.90;99.90;;;;;;4970252;28;20048;-83
2022/06/14 09:03:56;;;;;;;5.03;2.08;;;20.50;99.90;;;;;;5017781;28;20059;-85
2022/06/14 09:06:58;;;;;;;14.65;10.63;;;20.10;99.80;;;;;;4999914;28;20052;-84
2022/06/14 09:09:48;;;;;;;7.20;2.20;;;19.90;99.90;;;;;;5016425;28;20061;-83
2022/06/14 09:12:36;;;;;;;6.43;1.50;;;19.80;99.90;;;;;;4971240;28;20574;-83
2022/06/14 09:15:44;;;;;;;4.78;1.30;;;19.70;99.90;;;;;;4991250;28;20045;-86
2022/06/14 09:18:51;;;;;;;36.75;32.72;;;19.50;99.90;;;;;;5028688;28;20049;-83
2022/06/14 09:21:27;;;;;;;3.28;1.40;;;19.60;99.90;;;;;;5077123;28;20071;-82
2022/06/14 09:24:20;;;;;;;10.65;7.88;;;19.50;99.90;;;;;;5080992;28;20047;-84
2022/06/14 09:26:58;;;;;;;18.80;15.45;;;19.60;99.90;;;;;;5079838;28;20043;-83
2022/06/14 09:29:44;;;;;;;5.63;1.90;;;19.90;99.90;;;;;;5062948;28;20051;-83
2022/06/14 09:32:22;;;;;;;5.93;1.77;;;20.50;99.90;;;;;;5061885;28;20097;-83
2022/06/14 09:35:06;;;;;;;8.18;2.20;;;20.70;99.90;;;;;;5042717;28;20040;-83
2022/06/14 09:37:59;;;;;;;6.75;3.15;;;21.50;91.00;;;;;;5078798;28;20058;-84
2022/06/14 09:40:47;;;;;;;4.30;1.38;;;21.60;90.10;;;;;;5075936;28;20044;-83
2022/06/14 09:43:37;;;;;;;3.22;1.10;;;22.10;85.60;;;;;;5062679;28;20761;-84
2022/06/14 09:46:43;;;;;;;4.10;1.17;;;21.70;79.00;;;;;;5045019;28;20112;-86
2022/06/14 09:49:24;;;;;;;29.90;25.90;;;21.50;90.70;;;;;;5027822;28;20077;-82
2022/06/14 09:52:17;;;;;;;12.93;9.32;;;21.40;92.90;;;;;;5043373;28;20049;-79
2022/06/14 09:55:20;;;;;;;5.70;2.30;;;21.30;82.90;;;;;;5027376;28;20125;-82
2022/06/14 09:58:03;;;;;;;6.20;4.10;;;21.20;88.40;;;;;;5045911;28;20043;-81
2022/06/14 10:00:53;;;;;;;5.10;1.45;;;21.00;95.50;;;;;;5058146;28;20040;-82
2022/06/14 10:03:34;;;;;;;5.88;1.35;;;20.90;95.20;;;;;;5045154;28;20682;-80
2022/06/14 10:06:32;;;;;;;4.93;1.52;;;20.60;95.80;;;;;;5042225;28;20405;-82
2022/06/14 10:09:01;;;;;;;6.88;1.30;;;20.80;98.90;;;;;;5037302;28;21988;-83
2022/06/14 10:11:46;;;;;;;3.53;1.70;;;21.20;96.20;;;;;;5076042;28;20143;-82
2022/06/14 10:14:21;;;;;;;7.07;1.50;;;21.10;96.10;;;;;;5062417;28;20408;-82
2022/06/14 10:17:05;;;;;;;4.18;1.25;;;21.00;96.60;;;;;;5027348;28;20050;-82
2022/06/14 10:19:54;;;;;;;6.07;1.55;;;20.80;94.70;;;;;;5030364;28;20494;-82
2022/06/14 10:22:48;;;;;;;4.55;1.25;;;20.90;96.50;;;;;;5060449;28;20055;-82
2022/06/14 10:25:24;;;;;;;3.35;1.30;;;20.80;94.40;;;;;;5079061;28;20052;-82
2022/06/14 10:28:14;;;;;;;3.53;1.10;;;20.80;96.80;;;;;;5043982;28;20502;-82
2022/06/14 10:30:40;;;;;;;4.43;1.38;;;21.20;96.20;;;;;;5042600;28;20044;-81
2022/06/14 10:33:43;;;;;;;4.22;1.40;;;21.40;93.40;;;;;;5044319;28;20044;-82
2022/06/14 10:36:24;;;;;;;7.60;1.50;;;21.50;93.10;;;;;;5044807;28;20044;-81
2022/06/14 10:39:12;;;;;;;11.68;8.27;;;22.00;71.60;;;;;;5077447;28;20135;-81
2022/06/14 10:42:00;;;;;;;4.32;1.60;;;22.90;68.30;;;;;;5041067;28;20114;-80
2022/06/14 10:44:49;;;;;;;9.75;6.68;;;23.60;66.00;;;;;;5041367;28;20052;-80
2022/06/14 10:47:39;;;;;;;4.38;1.55;;;23.70;58.90;;;;;;5044024;28;20052;-81
2022/06/14 10:50:30;;;;;;;5.15;1.50;;;24.30;73.60;;;;;;5074426;28;20146;-81
2022/06/14 10:53:29;;;;;;;8.02;4.68;;;24.80;60.40;;;;;;5043389;28;20046;-81
2022/06/14 10:56:24;;;;;;;9.15;5.85;;;24.20;54.00;;;;;;5036408;28;20052;-81
2022/06/14 10:59:14;;;;;;;5.20;3.20;;;23.80;64.40;;;;;;5009177;28;20093;-81
2022/06/14 11:02:04;;;;;;;3.25;1.40;;;23.30;58.20;;;;;;5070978;28;20052;-80
2022/06/14 11:04:54;;;;;;;7.10;4.80;;;23.00;63.10;;;;;;5072717;28;20076;-80
2022/06/14 11:07:42;;;;;;;7.18;1.60;;;23.00;69.00;;;;;;5039457;28;20717;-80
2022/06/14 11:10:30;;;;;;;5.13;1.27;;;23.30;61.40;;;;;;5060662;28;20190;-80
2022/06/14 11:13:15;;;;;;;11.25;8.35;;;23.40;56.70;;;;;;5055487;28;20158;-80
2022/06/14 11:16:12;;;;;;;5.00;2.22;;;23.10;57.20;;;;;;5071600;28;20045;-77
2022/06/14 11:19:03;;;;;;;5.32;1.40;;;23.60;55.00;;;;;;5045590;28;20050;-80
2022/06/14 11:21:55;;;;;;;5.03;1.30;;;23.30;54.40;;;;;;5043176;28;20047;-80
2022/06/14 11:24:30;;;;;;;6.75;1.08;;;22.90;56.70;;;;;;5072882;28;20087;-79
2022/06/14 11:27:29;;;;;;;3.17;1.13;;;22.80;63.70;;;;;;5050539;28;20093;-79
2022/06/14 11:29:58;;;;;;;5.25;1.35;;;22.60;67.70;;;;;;5021928;28;20048;-79
2022/06/14 11:32:29;;;;;;;4.00;1.17;;;22.60;65.60;;;;;;5046036;28;20488;-80
2022/06/14 11:35:24;;;;;;;3.50;1.15;;;22.60;69.60;;;;;;5031508;28;20057;-79
2022/06/14 11:38:22;;;;;;;2.30;1.13;;;22.20;72.80;;;;;;5050482;28;20058;-79
2022/06/14 11:40:54;;;;;;;4.18;1.35;;;22.70;66.00;;;;;;5077340;28;20055;-79
2022/06/14 11:43:32;;;;;;;3.55;1.55;;;22.50;62.40;;;;;;5049384;28;20051;-80
2022/06/14 11:46:16;;;;;;;4.38;1.20;;;22.70;66.30;;;;;;5052599;28;20154;-79
2022/06/14 11:48:59;;;;;;;3.53;1.00;;;23.40;59.00;;;;;;5042149;28;20040;-80
2022/06/14 11:51:43;;;;;;;4.45;1.30;;;23.40;59.10;;;;;;5067717;28;20095;-85
2022/06/14 11:54:42;;;;;;;12.18;9.23;;;22.90;65.40;;;;;;5079170;28;20133;-80
2022/06/14 11:57:31;;;;;;;10.90;8.30;;;22.70;63.50;;;;;;5065229;28;20078;-78
2022/06/14 12:00:36;;;;;;;6.35;2.80;;;22.60;68.50;;;;;;5074199;28;20470;-79
2022/06/14 12:03:30;;;;;;;8.07;3.20;;;22.50;69.10;;;;;;5057237;28;21258;-79
2022/06/14 12:06:08;;;;;;;7.88;5.15;;;23.10;69.40;;;;;;5055706;28;20040;-79
2022/06/14 12:09:08;;;;;;;3.95;1.83;;;23.70;59.10;;;;;;5061421;28;20048;-79
2022/06/14 12:12:14;;;;;;;5.47;1.40;;;23.70;61.90;;;;;;5053668;28;20440;-79
2022/06/14 12:15:02;;;;;;;3.85;1.48;;;23.80;59.30;;;;;;5058495;28;20072;-79
2022/06/14 12:17:42;;;;;;;5.07;1.52;;;24.50;67.30;;;;;;5060796;28;20705;-80
2022/06/14 12:20:17;;;;;;;3.70;1.65;;;24.50;56.50;;;;;;5055702;28;20571;-86
2022/06/14 12:23:09;;;;;;;10.75;8.90;;;24.30;52.20;;;;;;5039656;28;20480;-82
2022/06/14 12:28:41;;;;;;;5.20;2.25;;;24.30;55.00;;;;;;5061679;28;20047;-82
2022/06/14 12:31:28;;;;;;;7.53;4.20;;;25.10;53.90;;;;;;5060551;28;20668;-82
2022/06/14 12:34:04;;;;;;;10.93;8.32;;;25.90;54.00;;;;;;5058221;28;20134;-82
2022/06/14 12:36:35;;;;;;;5.00;2.35;;;25.60;48.70;;;;;;5059546;28;20620;-82
2022/06/14 12:39:11;;;;;;;5.63;2.30;;;26.10;51.00;;;;;;5060194;28;20824;-82
2022/06/14 12:41:45;;;;;;;5.75;3.00;;;26.20;48.40;;;;;;5053070;28;20397;-81
2022/06/14 12:44:44;;;;;;;4.80;2.05;;;26.20;48.70;;;;;;5046117;28;20044;-79
2022/06/14 12:47:24;;;;;;;3.38;1.50;;;26.00;48.90;;;;;;5054530;28;20045;-80
2022/06/14 12:49:54;;;;;;;4.50;1.55;;;26.30;49.40;;;;;;5073502;28;20047;-80
2022/06/14 12:52:36;;;;;;;5.07;2.63;;;25.70;47.40;;;;;;5053330;28;20043;-80
2022/06/14 12:55:17;;;;;;;3.25;1.08;;;25.10;47.00;;;;;;5056589;28;20075;-80
2022/06/14 12:58:07;;;;;;;9.52;7.65;;;25.10;49.80;;;;;;5054701;28;21325;-79
2022/06/14 13:01:09;;;;;;;3.55;1.35;;;25.80;49.60;;;;;;5048968;28;20048;-80
2022/06/14 13:03:47;;;;;;;5.68;2.55;;;26.10;48.40;;;;;;5056268;28;20043;-81
2022/06/14 13:06:29;;;;;;;3.70;1.73;;;26.50;48.70;;;;;;5037330;28;20048;-81
2022/06/14 13:09:08;;;;;;;14.43;12.00;;;26.80;47.60;;;;;;5021829;28;20044;-80
2022/06/14 13:11:41;;;;;;;8.32;3.03;;;27.80;46.70;;;;;;5067640;28;20644;-80
2022/06/14 13:14:38;;;;;;;5.63;2.92;;;28.10;45.80;;;;;;5053900;28;20044;-80
2022/06/14 13:17:32;;;;;;;4.20;2.53;;;28.20;45.40;;;;;;5027786;28;20051;-79
2022/06/14 13:20:24;;;;;;;7.63;5.95;;;28.50;43.50;;;;;;5043552;28;20473;-85
2022/06/14 13:22:54;;;;;;;5.25;3.10;;;27.90;43.30;;;;;;5038434;28;20128;-80
2022/06/14 13:25:40;;;;;;;59.53;53.78;;;27.00;44.40;;;;;;5058203;28;20055;-79
2022/06/14 13:28:30;;;;;;;6.38;5.03;;;25.90;44.90;;;;;;5074106;28;20035;-80
2022/06/14 13:31:14;;;;;;;6.15;2.42;;;25.60;46.10;;;;;;5054752;28;20131;-80
2022/06/14 13:34:05;;;;;;;3.67;1.98;;;25.10;45.50;;;;;;5071363;28;20044;-80
2022/06/14 13:36:31;;;;;;;;;;;24.60;48.20;;;;;;5091884;28;20393;-81
2022/06/14 13:39:11;;;;;;;4.22;2.05;;;24.30;47.30;;;;;;5059028;28;19935;-81
2022/06/14 13:42:03;;;;;;;4.30;1.10;;;23.90;49.00;;;;;;5027332;28;20044;-81
2022/06/14 13:44:56;;;;;;;4.60;2.30;;;23.60;49.10;;;;;;5074458;28;20125;-81
2022/06/14 13:47:55;;;;;;;4.93;3.00;;;23.70;51.40;;;;;;5059268;28;20040;-81
2022/06/14 13:50:37;;;;;;;13.18;10.27;;;23.60;50.40;;;;;;4999048;28;20101;-83
2022/06/14 13:53:26;;;;;;;4.15;1.48;;;23.50;50.20;;;;;;5057115;28;20048;-80
2022/06/14 13:56:14;;;;;;;4.43;1.30;;;23.00;51.60;;;;;;5073748;28;20050;-80
2022/06/14 13:59:07;;;;;;;6.68;3.25;;;23.10;56.70;;;;;;5059446;28;20143;-79
2022/06/14 14:01:51;;;;;;;2.35;1.33;;;23.20;54.40;;;;;;5015641;28;20044;-79
2022/06/14 14:04:42;;;;;;;6.15;1.38;;;23.30;56.70;;;;;;5044683;28;20345;-80
2022/06/14 14:07:32;;;;;;;3.13;1.63;;;23.30;56.90;;;;;;5078688;28;20036;-79
2022/06/14 14:10:27;;;;;;;7.03;2.45;;;23.00;59.10;;;;;;5062713;28;20067;-79
2022/06/14 14:13:13;;;;;;;4.70;3.45;;;23.00;62.10;;;;;;5029173;28;20692;-80
2022/06/14 14:16:07;;;;;;;4.35;1.30;;;23.00;61.20;;;;;;5028199;28;20151;-79
2022/06/14 14:19:17;;;;;;;2.50;1.00;;;23.10;67.30;;;;;;5045116;28;20687;-80
2022/06/14 14:21:49;;;;;;;3.72;1.63;;;23.10;65.20;;;;;;5033249;28;20051;-85